Nesmith, SC (29580)

10:55 AM EST on February 09, 2016 (GMT -0500)
SCDOT Williamsburg | | Change Station
CLOSE
Current Station
Personal Weather Station
Location: Kingstree, SC
Elevation: 46 ft
Nearby Weather Stations
Active Advisory: Flood Warning

Elev 46 ft 33.68 °N, 79.82 °W | Updated 3 minutes ago

Partly Cloudy
Partly Cloudy
42.3 °F
Feels Like 42 °F
N
3.0
Wind Variable Wind from SW
Gusts 18.0 mph

Today
High -- | Low -- °F
--% Chance of Precip.
Yesterday
High -- | Low -- °F
Precip. -- in
Pressure 29.80 in
Visibility 10.0 miles
Clouds Overcast 4600 ft
Windchill 42 °F
Dew Point 26 °F
Humidity 53%
Rainfall 0.00 in
Snow Depth Not available.
7:08 AM 5:56 PM
New Moon, 1% visible
METAR KCKI 091555Z AUTO 25013G22KT 10SM OVC046 05/M05 A2980 RMK AO2
Pressure 29.80 in
Visibility 10.0 miles
Clouds Overcast 4600 ft
Windchill 42 °F
Dew Point 26 °F
Humidity 53%
Rainfall 0.00 in
Snow Depth Not available.
7:08 AM 5:56 PM
New Moon, 1% visible
METAR KCKI 091555Z AUTO 25013G22KT 10SM OVC046 05/M05 A2980 RMK AO2

10-Day Weather Forecast

Almanac

Astronomy

Feb. 09, 2016 Rise Set
Actual Time
Civil Twilight
Nautical Twilight
Astronomical Twilight
Moon
Length of Visible Light
Length of Day
Tomorrow will be .
, % of the Moon is Illuminated

Today's Extremes

State Highs State Lows

Community

WunderPhotos

Upload Photos

1,891,628 photos uploaded!

WunderBlog® & News

Nearby

Air Quality

  Air Quality AQ Index Pollutant
Not available.

Snow Depth

Station Depth Elevation

Earthquake Activity

City Distance Mag. Time & Date
Minimum magnitude displayed is 2.5.

Coastal Water Temperatures

Place Temperature

Stations

Nearby Weather Stations

Station Location Temp. Windchill Dew Point Humidity Wind Precip. Elev Updated Type
                   

Watches & Warnings

Flood Warning
Issued: 10:25 AM EST Feb. 9, 2016 – National Weather Service

The Flood Warning continues for
the Santee river near Jamestown.
* At 9 am Tuesday the stage was 13.7 feet.
* Flood stage is 10.0 feet.
* Minor flooding is occurring.
* Forecast, the river will remain steady or slowly fall.
* At 12.0 feet, several dirt logging roads are impassable.


Lat... Lon 3347 8002 3354 7998 3325 7937 3321 7938
          3320 7951 3329 7976




1010 am EST Tue Feb 9 2016

The Flood Warning continues for
the black at Kingstree.
* Until further notice.
* At 10:00 am Tuesday the stage was 12.60 feet.
* Flood stage is 12.0 feet.
* Minor flooding is occurring and minor flooding is forecast.
* Forecast... the river will continue to fall to a stage of 12.6 feet by tomorrow
morning.
* Impact... at 12.0 feet... flood waters will affect low lying areas along the
river especially upstream from the Highway 52 bridge.


Lat... Lon 3373 7984 3367 7980 3362 7974 3354 7979
          3359 7987 3367 7994


8